Hauptseite
METAR-TAF:

METAR-TAF

Flughäfen :

Mönchengladbach, Deutschland

Verkehrslandeplatz Mönchengladbach

Breite: 51-13-49N, Länge: 006-30-16E, Höhe: 38 m

Beobachtung

Neuester Wetterbericht von vor 37 Minuten, um 07:50 UTC
Wind 5 kt aus unterschiedlichen Richtungen
Temperatur 4°C
Luftfeuchtigkeit 87%
Luftdruck 1021 hPa
Sichtweite 10 km oder mehr
Durchbrochene Bewölkung in der Höhe von 3900 ft

METAR: EDLN 180750Z VRB05KT 9999 BKN039 04/02 Q1021

Zeit: 09:27 (08:27 UTC)

Prognose

Neuester Wetterbericht von vor 37 Minuten, um 07:50 UTC
Gültige Prognose vom 18 um 08 UTC bis 18 um 15 UTC
Wind 9 kt aus West/Südwest
Sichtweite 10 km oder mehr
Durchbrochene Bewölkung in der Höhe von 3500 ft

TAF: EDLN 180750Z 1808/1815 24009KT 9999 BKN035

Wetterbeobachtungen und Prognosen von mehr als 4000 Flughäfen (METAR und TAF Bericht).

Die verfügbaren Stationen werden durch gelbe und rote Markierungen auf der Karte dargestellt.

Führen Sie die Maus auf sie, um den Namen der Station zu sehen.

Darauf klicken, um die Beobachtung von Wetterbeobachtungen und Prognosen zu sehen.

Um die Karte zu ändern : klicken Sie auf den grünen Tasten mit einem schwarzen Kreuz Zum Vergrößern, auf den grünen Button mit einem Gedankenstrich zu verkleinern, oder auf die grünen Pfeile für benachbarte Karten.


METAR-TAF: